createdAt,value
2019-05-21T00:00:25.612Z,90.90
2019-05-21T00:02:55.840Z,90.70
2019-05-21T00:05:26.662Z,90.70
2019-05-21T00:07:56.514Z,90.60
2019-05-21T00:10:26.622Z,90.70
2019-05-21T00:12:56.870Z,90.70
2019-05-21T00:15:27.119Z,90.70
2019-05-21T00:17:57.244Z,90.50
2019-05-21T00:20:27.538Z,90.50
2019-05-21T00:22:57.640Z,90.70
2019-05-21T00:25:27.968Z,90.80
2019-05-21T00:28:01.292Z,90.90
2019-05-21T00:31:09.273Z,90.80
2019-05-21T00:34:15.676Z,90.90
2019-05-21T00:37:21.687Z,90.70
2019-05-21T00:40:28.028Z,90.70
2019-05-21T00:42:58.175Z,90.50
2019-05-21T00:45:28.383Z,90.70
2019-05-21T00:47:58.578Z,90.70
2019-05-21T00:50:28.757Z,90.70
2019-05-21T00:56:24.688Z,90.80
2019-05-21T00:58:54.996Z,90.70
2019-05-21T01:01:25.125Z,90.60
2019-05-21T01:03:55.279Z,90.70
2019-05-21T01:06:25.163Z,90.70
2019-05-21T01:08:55.522Z,90.60
2019-05-21T01:11:26.773Z,90.50
2019-05-21T01:13:56.887Z,90.60
2019-05-21T01:16:27.002Z,90.70
2019-05-21T01:18:57.087Z,90.80
2019-05-21T01:21:27.356Z,90.90
2019-05-21T01:23:57.462Z,90.90
2019-05-21T01:26:27.609Z,90.90
2019-05-21T01:28:57.774Z,90.80
2019-05-21T01:31:27.966Z,90.90
2019-05-21T01:33:58.097Z,91.00
2019-05-21T01:36:28.292Z,91.10
2019-05-21T01:38:58.140Z,90.90
2019-05-21T01:41:28.340Z,91.00
2019-05-21T01:43:58.158Z,90.90
2019-05-21T01:46:28.095Z,91.20
2019-05-21T01:48:58.028Z,91.00
2019-05-21T01:51:29.221Z,90.90
2019-05-21T01:53:59.467Z,90.90
2019-05-21T01:56:29.598Z,91.10
2019-05-21T01:58:59.831Z,90.70
2019-05-21T02:01:30.175Z,90.70
2019-05-21T02:04:00.341Z,90.80
2019-05-21T02:06:30.682Z,90.90
2019-05-21T02:09:00.589Z,90.90
2019-05-21T02:11:32.365Z,90.80
2019-05-21T02:14:02.210Z,91.10
2019-05-21T02:16:32.460Z,91.00
2019-05-21T02:19:02.635Z,91.00
2019-05-21T02:21:32.825Z,91.00
2019-05-21T02:24:03.920Z,90.90
2019-05-21T02:26:34.086Z,91.00
2019-05-21T02:29:04.331Z,91.00
2019-05-21T02:31:34.508Z,90.90
2019-05-21T02:34:04.558Z,90.90
2019-05-21T02:36:34.864Z,91.00
2019-05-21T02:39:07.325Z,91.00
2019-05-21T02:41:37.787Z,90.90
2019-05-21T02:44:08.054Z,90.70
2019-05-21T02:46:41.609Z,90.80
2019-05-21T02:49:11.943Z,90.80
2019-05-21T02:51:42.321Z,90.70
2019-05-21T02:54:12.530Z,90.90
2019-05-21T02:56:43.406Z,90.70
2019-05-21T02:59:13.319Z,90.80
2019-05-21T03:01:45.815Z,90.90
2019-05-21T03:04:16.131Z,91.00
2019-05-21T03:06:46.499Z,91.20
2019-05-21T03:09:16.361Z,91.00
2019-05-21T03:11:46.624Z,90.90
2019-05-21T03:14:16.808Z,91.20
2019-05-21T03:16:47.013Z,91.30
2019-05-21T03:19:17.048Z,91.10
2019-05-21T03:21:47.280Z,91.00
2019-05-21T03:24:17.466Z,91.10
2019-05-21T03:26:47.615Z,91.20
2019-05-21T03:29:17.499Z,91.20
2019-05-21T03:31:47.628Z,91.30
2019-05-21T03:34:18.233Z,91.30
2019-05-21T03:36:48.592Z,91.40
2019-05-21T03:39:19.585Z,91.50
2019-05-21T03:41:49.774Z,91.50
2019-05-21T03:44:19.851Z,91.40
2019-05-21T03:46:49.886Z,91.50
2019-05-21T03:49:20.218Z,91.60
2019-05-21T03:51:50.376Z,91.70
2019-05-21T03:54:27.355Z,91.70
2019-05-21T03:57:17.095Z,91.70
2019-05-21T03:59:47.236Z,91.60
2019-05-21T04:02:17.555Z,91.60
2019-05-21T04:04:47.867Z,91.50
2019-05-21T04:07:17.951Z,91.50
2019-05-21T04:09:47.807Z,91.40
2019-05-21T04:12:17.662Z,91.50
2019-05-21T04:14:49.172Z,91.50
2019-05-21T04:17:24.646Z,91.50
2019-05-21T04:19:54.869Z,91.40
2019-05-21T04:22:53.191Z,91.50
2019-05-21T04:25:24.558Z,91.40
2019-05-21T04:27:54.663Z,91.40
2019-05-21T04:30:24.852Z,91.40
2019-05-21T04:32:55.643Z,91.40
2019-05-21T04:35:25.945Z,91.60
2019-05-21T04:37:56.124Z,91.60
2019-05-21T04:40:26.338Z,91.60
2019-05-21T04:42:56.437Z,91.50
2019-05-21T04:45:26.657Z,91.50
2019-05-21T04:47:56.904Z,91.60
2019-05-21T04:50:27.064Z,91.40
2019-05-21T04:52:59.162Z,91.30
2019-05-21T04:55:29.280Z,91.50
2019-05-21T04:57:59.525Z,91.50
2019-05-21T05:00:29.790Z,91.60
2019-05-21T05:03:00.990Z,91.60
2019-05-21T05:05:31.139Z,91.40
2019-05-21T05:08:01.381Z,91.50
2019-05-21T05:10:31.585Z,91.50
2019-05-21T05:13:01.654Z,91.50
2019-05-21T05:15:31.951Z,91.60
2019-05-21T05:18:01.891Z,91.60
2019-05-21T05:20:32.059Z,91.70
2019-05-21T05:23:02.058Z,91.50
2019-05-21T05:25:32.355Z,91.40
2019-05-21T05:28:02.316Z,91.80
2019-05-21T05:30:32.479Z,91.60
2019-05-21T05:33:02.403Z,91.60
2019-05-21T05:35:32.235Z,91.70
2019-05-21T05:38:02.400Z,91.40
2019-05-21T05:40:32.563Z,91.40
2019-05-21T05:43:02.771Z,91.50
2019-05-21T05:45:32.996Z,91.50
2019-05-21T05:48:02.909Z,91.50
2019-05-21T05:50:37.169Z,91.40
2019-05-21T05:53:07.120Z,91.40
2019-05-21T05:55:37.253Z,91.60
2019-05-21T05:58:07.443Z,91.40
2019-05-21T06:00:38.024Z,91.70
2019-05-21T06:03:09.190Z,91.40
2019-05-21T06:05:39.757Z,91.50
2019-05-21T06:08:10.180Z,91.60
2019-05-21T06:10:40.359Z,91.50
2019-05-21T06:13:10.662Z,91.60
2019-05-21T06:15:40.846Z,91.80
2019-05-21T06:18:11.127Z,91.70
2019-05-21T06:20:41.329Z,91.80
2019-05-21T06:23:11.527Z,91.90
2019-05-21T06:25:41.410Z,92.00
2019-05-21T06:28:11.621Z,92.10
2019-05-21T06:30:41.817Z,92.10
2019-05-21T06:33:11.939Z,92.00
2019-05-21T06:35:42.226Z,91.80
2019-05-21T06:38:17.814Z,91.70
2019-05-21T06:40:44.191Z,91.70
2019-05-21T06:43:14.973Z,92.10
2019-05-21T06:45:44.982Z,91.90
2019-05-21T06:48:15.130Z,92.10
2019-05-21T06:50:45.351Z,92.00
2019-05-21T06:53:15.559Z,92.00
2019-05-21T06:55:45.794Z,91.90
2019-05-21T06:58:15.995Z,92.00
2019-05-21T07:00:49.442Z,92.10
2019-05-21T07:03:39.018Z,92.20
2019-05-21T07:06:08.908Z,92.30
2019-05-21T07:08:39.017Z,92.40
2019-05-21T07:11:09.293Z,92.30
2019-05-21T07:13:39.692Z,92.10
2019-05-21T07:16:09.999Z,92.10
2019-05-21T07:18:41.499Z,92.10
2019-05-21T07:21:12.096Z,92.40
2019-05-21T07:23:43.421Z,92.50
2019-05-21T07:26:13.819Z,92.50
2019-05-21T07:28:44.011Z,92.40
2019-05-21T07:31:17.521Z,92.60
2019-05-21T07:33:49.094Z,92.30
2019-05-21T07:36:19.464Z,92.40
2019-05-21T07:38:53.775Z,92.40
2019-05-21T07:41:21.376Z,92.50
2019-05-21T07:43:51.291Z,92.10
2019-05-21T07:46:21.687Z,92.20
2019-05-21T07:48:51.519Z,92.20
2019-05-21T07:51:21.679Z,91.90
2019-05-21T07:53:51.778Z,91.70
2019-05-21T07:56:21.829Z,91.90
2019-05-21T07:58:52.056Z,92.10
2019-05-21T08:01:22.118Z,92.30
2019-05-21T08:03:52.458Z,92.30
2019-05-21T08:06:22.395Z,92.30
2019-05-21T08:09:10.917Z,92.30
2019-05-21T08:11:24.665Z,92.40
2019-05-21T08:13:55.833Z,92.30
2019-05-21T08:16:25.957Z,92.30
2019-05-21T08:18:56.140Z,92.20
2019-05-21T08:21:26.380Z,92.50
2019-05-21T08:23:56.398Z,92.50
2019-05-21T08:26:26.609Z,92.30
2019-05-21T08:28:57.079Z,92.40
2019-05-21T08:31:27.363Z,92.40
2019-05-21T08:33:57.828Z,92.40
2019-05-21T08:36:28.139Z,92.20
2019-05-21T08:38:58.300Z,92.30
2019-05-21T08:41:28.567Z,92.20
2019-05-21T08:43:58.906Z,92.20
2019-05-21T08:46:29.262Z,92.10
2019-05-21T08:48:59.464Z,92.10
2019-05-21T08:51:29.713Z,92.10
2019-05-21T08:53:59.898Z,92.40
2019-05-21T08:56:29.878Z,92.50
2019-05-21T08:59:00.119Z,92.60
2019-05-21T09:01:30.352Z,92.50
2019-05-21T09:04:00.652Z,92.30
2019-05-21T09:06:30.933Z,92.20
2019-05-21T09:09:00.873Z,92.20
2019-05-21T09:11:32.774Z,92.40
2019-05-21T09:14:03.129Z,92.60
2019-05-21T09:16:33.596Z,92.80
2019-05-21T09:19:03.588Z,92.70
2019-05-21T09:21:33.554Z,92.50
2019-05-21T09:24:03.851Z,92.50
2019-05-21T09:26:34.292Z,92.40
2019-05-21T09:29:04.518Z,92.90
2019-05-21T09:31:35.354Z,92.20
2019-05-21T09:34:05.782Z,92.30
2019-05-21T09:36:36.081Z,92.10
2019-05-21T09:39:07.697Z,92.10
2019-05-21T09:41:38.752Z,92.30
2019-05-21T09:44:09.012Z,92.20
2019-05-21T09:46:39.192Z,92.00
2019-05-21T09:49:09.555Z,91.60
2019-05-21T09:51:39.734Z,91.50
2019-05-21T09:54:10.901Z,91.90
2019-05-21T09:56:41.499Z,92.10
2019-05-21T09:59:19.861Z,92.40
2019-05-21T10:02:00.525Z,92.60
2019-05-21T10:04:30.802Z,92.80
2019-05-21T10:07:02.277Z,92.50
2019-05-21T10:09:33.516Z,91.80
2019-05-21T10:12:08.257Z,91.90
2019-05-21T10:14:38.528Z,92.20
2019-05-21T10:17:10.934Z,92.60
2019-05-21T10:19:42.071Z,92.60
2019-05-21T10:22:15.046Z,92.60
2019-05-21T10:24:45.325Z,92.50
2019-05-21T10:27:15.643Z,92.40
2019-05-21T10:29:45.506Z,92.20
2019-05-21T10:32:15.799Z,92.30
2019-05-21T10:34:46.967Z,92.10
2019-05-21T10:37:17.636Z,92.00
2019-05-21T10:39:48.185Z,91.90
2019-05-21T10:42:18.191Z,92.10
2019-05-21T10:44:48.166Z,91.70
2019-05-21T10:47:18.508Z,91.90
2019-05-21T10:49:48.723Z,91.80
2019-05-21T10:52:19.118Z,91.60
2019-05-21T10:54:52.054Z,92.00
2019-05-21T10:57:22.905Z,92.10
2019-05-21T10:59:52.711Z,92.10
2019-05-21T11:02:42.341Z,92.10
2019-05-21T11:05:14.096Z,92.20
2019-05-21T11:07:45.994Z,92.30
2019-05-21T11:10:16.536Z,92.30
2019-05-21T11:12:47.886Z,92.00
2019-05-21T11:15:18.283Z,91.90
2019-05-21T11:18:08.711Z,91.90
2019-05-21T11:20:22.657Z,91.70
2019-05-21T11:22:52.934Z,91.80
2019-05-21T11:25:23.208Z,92.20
2019-05-21T11:27:53.815Z,92.40
2019-05-21T11:30:24.105Z,92.40
2019-05-21T11:32:54.276Z,92.30
2019-05-21T11:35:30.659Z,91.90
2019-05-21T11:38:02.301Z,91.90
2019-05-21T11:40:32.741Z,92.00
2019-05-21T11:43:03.623Z,92.40
2019-05-21T11:45:33.974Z,92.30
2019-05-21T11:48:04.008Z,92.50
2019-05-21T11:50:34.391Z,92.50
2019-05-21T11:53:04.610Z,92.50
2019-05-21T11:55:34.925Z,92.50
2019-05-21T11:58:05.449Z,92.10
2019-05-21T12:00:36.406Z,92.00
2019-05-21T12:03:06.820Z,92.20
2019-05-21T12:05:37.693Z,92.30
2019-05-21T12:08:07.946Z,92.10
2019-05-21T12:10:38.228Z,92.40
2019-05-21T12:13:08.367Z,92.30
2019-05-21T12:15:38.820Z,91.90
2019-05-21T12:18:09.044Z,92.00
2019-05-21T12:20:39.376Z,91.90
2019-05-21T12:23:09.777Z,92.30
2019-05-21T12:25:39.715Z,92.50
2019-05-21T12:28:11.444Z,92.20
2019-05-21T12:30:41.786Z,92.40
2019-05-21T12:33:12.061Z,92.40
2019-05-21T12:35:42.304Z,92.50
2019-05-21T12:38:12.440Z,92.50
2019-05-21T12:40:42.753Z,92.30
2019-05-21T12:43:12.994Z,91.80
2019-05-21T12:45:43.224Z,91.80
2019-05-21T12:48:13.567Z,92.10
2019-05-21T12:50:43.843Z,92.00
2019-05-21T12:53:16.572Z,92.10
2019-05-21T12:55:46.153Z,92.20
2019-05-21T12:58:16.383Z,92.30
2019-05-21T13:00:46.404Z,92.20
2019-05-21T13:03:16.514Z,92.10
2019-05-21T13:05:46.527Z,92.10
2019-05-21T13:08:36.283Z,91.90
2019-05-21T13:11:10.400Z,92.00
2019-05-21T13:13:40.604Z,92.10
2019-05-21T13:16:10.798Z,92.20
2019-05-21T13:18:40.997Z,92.30
2019-05-21T13:21:11.314Z,92.20
2019-05-21T13:23:41.410Z,92.10
2019-05-21T13:26:11.612Z,92.00
2019-05-21T13:28:41.578Z,91.80
2019-05-21T13:31:11.891Z,92.20
2019-05-21T13:33:42.138Z,91.90
2019-05-21T13:36:12.395Z,91.80
2019-05-21T13:38:42.792Z,91.90
2019-05-21T13:41:13.118Z,92.00
2019-05-21T13:43:43.559Z,92.10
2019-05-21T13:46:13.470Z,92.30
2019-05-21T13:48:46.798Z,92.20
2019-05-21T13:51:15.751Z,92.10
2019-05-21T13:53:46.126Z,92.20
2019-05-21T13:56:16.342Z,92.20
2019-05-21T13:58:48.323Z,92.00
2019-05-21T14:01:39.193Z,92.00
2019-05-21T14:03:53.915Z,92.20
2019-05-21T14:06:23.918Z,92.10
2019-05-21T14:08:54.172Z,92.20
2019-05-21T14:11:24.452Z,91.90
2019-05-21T14:13:54.784Z,92.20
2019-05-21T14:16:26.493Z,92.10
2019-05-21T14:18:56.814Z,91.80
2019-05-21T14:21:26.805Z,91.80
2019-05-21T14:23:56.912Z,92.00
2019-05-21T14:26:27.572Z,92.10
2019-05-21T14:28:58.129Z,92.10
2019-05-21T14:31:28.227Z,92.00
2019-05-21T14:33:58.565Z,92.20
2019-05-21T14:36:28.416Z,92.00
2019-05-21T14:38:58.568Z,91.90
2019-05-21T14:41:29.046Z,92.20
2019-05-21T14:43:59.337Z,92.30
2019-05-21T14:46:29.716Z,92.20
2019-05-21T14:48:59.563Z,92.30
2019-05-21T14:51:29.800Z,92.40
2019-05-21T14:54:05.905Z,92.40
2019-05-21T14:56:35.812Z,92.30
2019-05-21T14:59:05.860Z,92.20
2019-05-21T15:01:36.329Z,92.20
2019-05-21T15:04:07.473Z,92.10
2019-05-21T15:06:37.844Z,92.30
2019-05-21T15:09:08.104Z,92.20
2019-05-21T15:11:38.241Z,92.00
2019-05-21T15:14:08.545Z,92.20
2019-05-21T15:16:38.850Z,92.00
2019-05-21T15:19:09.308Z,92.10
2019-05-21T15:21:41.315Z,92.10
2019-05-21T15:24:11.705Z,91.90
2019-05-21T15:26:42.211Z,91.70
2019-05-21T15:29:13.367Z,91.70
2019-05-21T15:31:43.671Z,91.80
2019-05-21T15:34:13.757Z,91.80
2019-05-21T15:36:44.266Z,91.90
2019-05-21T15:39:14.477Z,92.10
2019-05-21T15:41:44.678Z,91.90
2019-05-21T15:44:14.804Z,92.00
2019-05-21T15:46:50.160Z,92.00
2019-05-21T15:49:35.131Z,92.10
2019-05-21T15:51:50.984Z,91.90
2019-05-21T15:54:21.384Z,92.00
2019-05-21T15:56:51.634Z,91.90
2019-05-21T15:59:22.908Z,92.00
2019-05-21T16:01:53.258Z,91.90
2019-05-21T16:04:24.175Z,91.90
2019-05-21T16:06:56.817Z,92.00
2019-05-21T16:09:48.346Z,92.10
2019-05-21T16:12:24.816Z,92.10
2019-05-21T16:15:14.293Z,92.20
2019-05-21T16:17:44.609Z,92.30
2019-05-21T16:20:16.010Z,92.20
2019-05-21T16:22:46.532Z,92.30
2019-05-21T16:25:16.945Z,92.00
2019-05-21T16:27:47.182Z,92.10
2019-05-21T16:30:17.388Z,92.10
2019-05-21T16:32:47.900Z,92.00
2019-05-21T16:35:18.532Z,92.10
2019-05-21T16:37:49.033Z,92.00
2019-05-21T16:40:20.342Z,92.00
2019-05-21T16:42:51.672Z,92.20
2019-05-21T16:45:21.694Z,92.00
2019-05-21T16:47:51.981Z,91.90
2019-05-21T16:50:22.652Z,91.90
2019-05-21T16:52:52.737Z,91.90
2019-05-21T16:55:23.223Z,92.30
2019-05-21T16:57:56.206Z,91.90
2019-05-21T17:00:27.465Z,91.90
2019-05-21T17:02:57.650Z,92.10
2019-05-21T17:05:28.184Z,92.20
2019-05-21T17:07:58.379Z,92.10
2019-05-21T17:10:30.166Z,92.10
2019-05-21T17:13:07.734Z,92.10
2019-05-21T17:15:39.129Z,92.10
2019-05-21T17:18:10.223Z,92.10
2019-05-21T17:20:40.614Z,92.20
2019-05-21T17:23:10.961Z,92.10
2019-05-21T17:25:41.302Z,92.10
2019-05-21T17:28:11.900Z,92.40
2019-05-21T17:30:42.284Z,92.20
2019-05-21T17:33:12.803Z,92.20
2019-05-21T17:35:42.991Z,92.20
2019-05-21T17:38:13.527Z,92.30
2019-05-21T17:40:43.629Z,92.30
2019-05-21T17:43:14.929Z,92.40
2019-05-21T17:45:45.402Z,92.50
2019-05-21T17:48:15.688Z,92.50
2019-05-21T17:50:45.828Z,92.50
2019-05-21T17:53:16.212Z,92.50
2019-05-21T17:55:46.663Z,92.60
2019-05-21T17:58:16.682Z,92.50
2019-05-21T18:00:50.563Z,92.50
2019-05-21T18:03:21.530Z,92.60
2019-05-21T18:05:52.920Z,92.70
2019-05-21T18:08:24.056Z,92.50
2019-05-21T18:10:55.142Z,92.60
2019-05-21T18:13:25.866Z,92.70
2019-05-21T18:15:56.735Z,92.70
2019-05-21T18:18:29.294Z,92.80
2019-05-21T18:21:01.038Z,92.80
2019-05-21T18:23:31.679Z,92.80
2019-05-21T18:26:02.511Z,92.80
2019-05-21T18:28:33.394Z,92.80
2019-05-21T18:31:06.324Z,92.80
2019-05-21T18:33:37.887Z,92.80
2019-05-21T18:36:08.207Z,92.70
2019-05-21T18:38:38.565Z,92.70
2019-05-21T18:41:09.421Z,92.80
2019-05-21T18:43:40.343Z,92.70
2019-05-21T18:46:12.234Z,92.70
2019-05-21T18:48:43.445Z,92.70
2019-05-21T18:51:13.557Z,92.70
2019-05-21T18:53:44.333Z,92.80
2019-05-21T18:56:17.848Z,92.60
2019-05-21T18:58:49.895Z,92.70
2019-05-21T19:01:20.587Z,92.70
2019-05-21T19:03:51.110Z,92.70
2019-05-21T19:06:21.577Z,92.70
2019-05-21T19:08:51.951Z,92.80
2019-05-21T19:11:22.401Z,92.80
2019-05-21T19:13:56.126Z,92.80
2019-05-21T19:16:45.903Z,92.70
2019-05-21T19:19:16.130Z,92.70
2019-05-21T19:21:46.747Z,92.70
2019-05-21T19:24:17.125Z,92.80
2019-05-21T19:26:47.347Z,92.90
2019-05-21T19:29:17.818Z,92.90
2019-05-21T19:31:49.376Z,92.80
2019-05-21T19:34:20.025Z,92.90
2019-05-21T19:36:50.131Z,92.90
2019-05-21T19:39:20.587Z,92.90
2019-05-21T19:41:50.912Z,92.80
2019-05-21T19:44:21.419Z,92.70
2019-05-21T19:46:51.437Z,92.60
2019-05-21T19:49:21.604Z,92.60
2019-05-21T19:51:52.960Z,92.50
2019-05-21T19:54:23.559Z,92.60
2019-05-21T19:56:54.071Z,92.50
2019-05-21T19:59:24.706Z,92.50
2019-05-21T20:01:57.264Z,92.50
2019-05-21T20:04:29.284Z,92.50
2019-05-21T20:07:07.160Z,92.50
2019-05-21T20:09:38.245Z,92.50
2019-05-21T20:12:09.733Z,92.60
2019-05-21T20:14:40.771Z,92.50
2019-05-21T20:17:12.244Z,92.60
2019-05-21T20:19:44.136Z,92.50
2019-05-21T20:22:14.625Z,92.50
2019-05-21T20:24:45.202Z,92.60
2019-05-21T20:27:15.771Z,92.60
2019-05-21T20:29:46.173Z,92.50
2019-05-21T20:32:20.102Z,92.60
2019-05-21T20:34:51.137Z,92.60
2019-05-21T20:37:23.423Z,92.70
2019-05-21T20:39:53.491Z,92.80
2019-05-21T20:42:25.503Z,92.70
2019-05-21T20:44:55.979Z,92.70
2019-05-21T20:47:26.102Z,92.70
2019-05-21T20:49:57.602Z,92.80
2019-05-21T20:52:29.042Z,92.90
2019-05-21T20:55:00.804Z,92.90
2019-05-21T20:57:32.343Z,92.80
2019-05-21T21:00:03.582Z,93.00
2019-05-21T21:02:35.804Z,92.90
2019-05-21T21:05:06.713Z,92.90
2019-05-21T21:07:39.143Z,92.80
2019-05-21T21:10:10.978Z,92.80
2019-05-21T21:12:41.735Z,92.80
2019-05-21T21:15:14.291Z,92.80
2019-05-21T21:17:44.621Z,92.80
2019-05-21T21:20:14.813Z,92.80
2019-05-21T21:22:45.163Z,92.60
2019-05-21T21:25:20.630Z,92.60
2019-05-21T21:27:51.298Z,92.50
2019-05-21T21:30:21.637Z,92.30
2019-05-21T21:32:52.090Z,92.40
2019-05-21T21:35:23.178Z,92.50
2019-05-21T21:37:53.569Z,92.70
2019-05-21T21:40:43.216Z,92.70
2019-05-21T21:43:14.058Z,92.70
2019-05-21T21:45:44.339Z,92.70
2019-05-21T21:48:15.111Z,92.70
2019-05-21T21:50:45.302Z,92.70
2019-05-21T21:53:15.806Z,92.60
2019-05-21T21:55:46.221Z,92.40
2019-05-21T21:58:16.614Z,92.40
2019-05-21T22:00:57.176Z,92.40
2019-05-21T22:03:32.846Z,92.50
2019-05-21T22:06:06.805Z,92.60
2019-05-21T22:08:37.224Z,92.60
2019-05-21T22:11:08.164Z,92.70
2019-05-21T22:13:39.053Z,92.70
2019-05-21T22:16:09.407Z,92.80
2019-05-21T22:18:48.546Z,92.90
2019-05-21T22:21:18.871Z,93.10
2019-05-21T22:23:50.441Z,92.70
2019-05-21T22:26:21.332Z,92.80
2019-05-21T22:28:51.664Z,92.80
2019-05-21T22:31:22.010Z,92.80
2019-05-21T22:33:52.252Z,92.80
2019-05-21T22:36:22.301Z,92.70
2019-05-21T22:38:52.273Z,92.80
2019-05-21T22:41:22.468Z,92.80
2019-05-21T22:43:52.451Z,93.00
2019-05-21T22:46:22.834Z,92.90
2019-05-21T22:48:53.095Z,92.90
2019-05-21T22:51:23.323Z,93.00
2019-05-21T22:53:53.674Z,93.00
2019-05-21T22:56:23.914Z,92.90
2019-05-21T22:58:54.026Z,92.80
2019-05-21T23:01:25.191Z,92.80
2019-05-21T23:03:56.461Z,92.90
2019-05-21T23:06:26.588Z,92.90
2019-05-21T23:08:56.787Z,92.70
2019-05-21T23:11:27.844Z,92.60
2019-05-21T23:13:57.751Z,92.60
2019-05-21T23:16:31.110Z,92.70
2019-05-21T23:19:10.420Z,92.70
2019-05-21T23:21:46.622Z,92.70
2019-05-21T23:24:18.656Z,92.70
2019-05-21T23:26:49.500Z,92.70
2019-05-21T23:29:20.891Z,92.70
2019-05-21T23:31:51.162Z,92.60
2019-05-21T23:34:21.526Z,92.60
2019-05-21T23:36:52.321Z,92.70
2019-05-21T23:39:23.990Z,92.60
2019-05-21T23:41:55.392Z,92.60
2019-05-21T23:44:25.775Z,92.60
2019-05-21T23:46:56.048Z,92.60
2019-05-21T23:49:26.133Z,92.60
2019-05-21T23:51:56.253Z,92.70
2019-05-21T23:54:26.664Z,92.70
2019-05-21T23:56:57.959Z,93.00
2019-05-21T23:59:28.092Z,92.70
